KHOU

William P Hobby Airport

Houston, Texas, USA
KHOU 190906Z 1909/2006 04010KT P6SM VCSH SCT025 BKN050 FM191100 05009KT P6SM -RA OVC025 FM191400 05008KT P6SM -RA OVC020 FM191800 07007KT P6SM VCSH BKN025 FM200100 01006KT P6SM OVC020
Issued Valid From Valid To
Oct-19 @ 09:06 UTC
(8 minutes ago)
Oct-19 @ 09:00 UTC
(14 minutes ago)
Oct-20 @ 06:00 UTC
(in 21 hours)
Oct-19 @ 09:00 to Oct-19 @ 11:00
KHOU 190906Z 1909/2006 04010KT P6SM VCSH SCT025 BKN050
Wind Visibility Clouds
40° at 10 knots Greater than 6 miles
  • Scattered at 2,500' AGL
  • Broken at 5,000' AGL
From Oct-19 @ 11:00 to Oct-19 @ 14:00
FM191100 05009KT P6SM -RA OVC025
Wind Visibility Clouds Conditions
50° at 9 knots Greater than 6 miles
  • Overcast at 2,500' AGL
  • Light Rain
From Oct-19 @ 14:00 to Oct-19 @ 18:00
FM191400 05008KT P6SM -RA OVC020
Wind Visibility Clouds Conditions
50° at 8 knots Greater than 6 miles
  • Overcast at 2,000' AGL
  • Light Rain
From Oct-19 @ 18:00 to Oct-20 @ 01:00
FM191800 07007KT P6SM VCSH BKN025
Wind Visibility Clouds
70° at 7 knots Greater than 6 miles
  • Broken at 2,500' AGL
From Oct-20 @ 01:00 to Oct-20 @ 06:00
FM200100 01006KT P6SM OVC020
Wind Visibility Clouds
10° at 6 knots Greater than 6 miles
  • Overcast at 2,000' AGL
KHOU 190906Z 1909/2006 04010KT P6SM VCSH SCT025 BKN050 FM191100 05009KT P6SM -RA OVC025 FM191400 05008KT P6SM -RA OVC020 FM191800 07007KT P6SM VCSH BKN025 FM200100 01006KT P6SM OVC020
Issued Oct-19 @ 09:06 UTC
(8 minutes ago)
Valid From Oct-19 @ 09:00 UTC
(14 minutes ago)
Valid To Oct-20 @ 06:00 UTC
(in 21 hours)
Oct-19 @ 09:00 - Oct-19 @ 11:00
Wind Visibility
40° at 10 knots Greater than 6 miles
Clouds
  • Scattered at 2,500' AGL
  • Broken at 5,000' AGL
From Oct-19 @ 11:00 - Oct-19 @ 14:00
Wind Visibility
50° at 9 knots Greater than 6 miles
Clouds
  • Overcast at 2,500' AGL
Conditions
  • Light Rain
From Oct-19 @ 14:00 - Oct-19 @ 18:00
Wind Visibility
50° at 8 knots Greater than 6 miles
Clouds
  • Overcast at 2,000' AGL
Conditions
  • Light Rain
From Oct-19 @ 18:00 - Oct-20 @ 01:00
Wind Visibility
70° at 7 knots Greater than 6 miles
Clouds
  • Broken at 2,500' AGL
From Oct-20 @ 01:00 - Oct-20 @ 06:00
Wind Visibility
10° at 6 knots Greater than 6 miles
Clouds
  • Overcast at 2,000' AGL